createdAt,value
2023-06-30T00:02:08.063Z,99539.81
2023-06-30T00:04:37.167Z,99533.25
2023-06-30T00:07:06.170Z,99533.13
2023-06-30T00:09:35.636Z,99531.50
2023-06-30T00:12:04.030Z,99532.25
2023-06-30T00:14:33.704Z,99531.75
2023-06-30T00:17:01.962Z,99528.91
2023-06-30T00:19:30.870Z,99522.34
2023-06-30T00:21:59.016Z,99526.94
2023-06-30T00:24:27.254Z,99522.03
2023-06-30T00:26:55.392Z,99520.88
2023-06-30T00:29:23.498Z,99521.25
2023-06-30T00:31:51.720Z,99520.41
2023-06-30T00:34:19.782Z,99518.75
2023-06-30T00:36:47.635Z,99523.53
2023-06-30T00:39:15.641Z,99519.50
2023-06-30T00:41:44.137Z,99524.25
2023-06-30T00:44:12.269Z,99527.34
2023-06-30T00:46:41.550Z,99514.63
2023-06-30T00:49:09.939Z,99517.00
2023-06-30T00:51:37.770Z,99518.00
2023-06-30T00:54:06.002Z,99511.91
2023-06-30T00:56:34.230Z,99520.06
2023-06-30T00:59:03.466Z,99515.31
2023-06-30T01:01:48.670Z,99517.19
2023-06-30T01:04:28.552Z,99523.41
2023-06-30T01:07:24.495Z,99518.66
2023-06-30T01:09:59.652Z,99522.09
2023-06-30T01:12:28.069Z,99518.03
2023-06-30T01:14:56.390Z,99528.53
2023-06-30T01:17:26.510Z,99526.84
2023-06-30T01:19:56.352Z,99533.81
2023-06-30T01:22:27.796Z,99538.22
2023-06-30T01:25:01.907Z,99532.78
2023-06-30T01:27:30.058Z,99529.69
2023-06-30T01:29:59.543Z,99536.03
2023-06-30T01:32:27.814Z,99530.22
2023-06-30T01:34:56.978Z,99530.41
2023-06-30T01:37:25.066Z,99529.22
2023-06-30T01:39:53.887Z,99532.28
2023-06-30T01:42:22.045Z,99536.53
2023-06-30T01:44:51.089Z,99530.56
2023-06-30T01:47:19.389Z,99531.94
2023-06-30T01:50:12.264Z,99523.78
2023-06-30T01:52:39.972Z,99508.81
2023-06-30T01:55:08.633Z,99519.59
2023-06-30T01:57:37.249Z,99523.28
2023-06-30T02:00:06.809Z,99527.00
2023-06-30T02:02:35.720Z,99526.94
2023-06-30T02:05:04.104Z,99525.00
2023-06-30T02:07:32.912Z,99520.91
2023-06-30T02:10:01.220Z,99530.06
2023-06-30T02:12:29.896Z,99523.59
2023-06-30T02:14:58.488Z,99522.56
2023-06-30T02:17:34.491Z,99520.34
2023-06-30T02:20:11.513Z,99520.00
2023-06-30T02:22:40.458Z,99519.38
2023-06-30T02:25:09.275Z,99530.06
2023-06-30T02:27:38.202Z,99534.34
2023-06-30T02:30:08.278Z,99521.34
2023-06-30T02:32:39.754Z,99519.38
2023-06-30T02:35:09.433Z,99527.25
2023-06-30T02:37:38.596Z,99533.13
2023-06-30T02:40:07.395Z,99525.84
2023-06-30T02:42:36.136Z,99520.41
2023-06-30T02:45:05.513Z,99520.91
2023-06-30T02:47:34.199Z,99513.16
2023-06-30T02:50:02.341Z,99522.41
2023-06-30T02:52:30.643Z,99518.81
2023-06-30T02:54:58.326Z,99520.22
2023-06-30T02:57:26.916Z,99522.59
2023-06-30T02:59:55.420Z,99527.44
2023-06-30T03:02:23.879Z,99522.94
2023-06-30T03:04:52.384Z,99524.16
2023-06-30T03:07:20.651Z,99532.84
2023-06-30T03:09:48.805Z,99527.09
2023-06-30T03:12:17.522Z,99533.16
2023-06-30T03:14:46.112Z,99530.97
2023-06-30T03:17:14.174Z,99520.97
2023-06-30T03:19:42.234Z,99527.53
2023-06-30T03:22:10.719Z,99533.59
2023-06-30T03:24:39.246Z,99533.56
2023-06-30T03:27:09.680Z,99534.91
2023-06-30T03:29:37.713Z,99543.28
2023-06-30T03:32:06.309Z,99545.31
2023-06-30T03:34:34.698Z,99538.25
2023-06-30T03:37:02.852Z,99529.50
2023-06-30T03:39:31.050Z,99536.78
2023-06-30T03:41:58.827Z,99529.66
2023-06-30T03:44:28.721Z,99529.97
2023-06-30T03:46:57.608Z,99534.19
2023-06-30T03:49:25.977Z,99533.41
2023-06-30T03:51:54.118Z,99536.63
2023-06-30T03:54:21.913Z,99539.81
2023-06-30T03:56:50.796Z,99534.88
2023-06-30T03:59:19.512Z,99532.91
2023-06-30T04:01:47.886Z,99532.16
2023-06-30T04:04:16.244Z,99535.94
2023-06-30T04:06:45.728Z,99539.66
2023-06-30T04:09:13.735Z,99538.38
2023-06-30T04:11:41.930Z,99533.59
2023-06-30T04:14:10.409Z,99532.44
2023-06-30T04:16:38.641Z,99534.47
2023-06-30T04:19:06.709Z,99534.91
2023-06-30T04:21:34.821Z,99535.03
2023-06-30T04:24:03.104Z,99541.16
2023-06-30T04:26:32.998Z,99531.13
2023-06-30T04:29:01.331Z,99542.16
2023-06-30T04:31:30.972Z,99532.22
2023-06-30T04:33:59.302Z,99549.47
2023-06-30T04:36:30.484Z,99544.03
2023-06-30T04:38:59.386Z,99548.19
2023-06-30T04:41:27.809Z,99547.09
2023-06-30T04:43:55.975Z,99543.09
2023-06-30T04:46:26.785Z,99547.91
2023-06-30T04:48:57.512Z,99553.09
2023-06-30T04:51:25.933Z,99550.97
2023-06-30T04:53:54.773Z,99552.25
2023-06-30T04:56:24.439Z,99555.09
2023-06-30T04:58:52.585Z,99550.47
2023-06-30T05:01:20.289Z,99542.69
2023-06-30T05:03:48.095Z,99546.84
2023-06-30T05:06:16.334Z,99544.53
2023-06-30T05:08:45.221Z,99547.00
2023-06-30T05:11:13.715Z,99550.47
2023-06-30T05:13:42.903Z,99554.41
2023-06-30T05:16:13.632Z,99557.19
2023-06-30T05:18:42.958Z,99555.13
2023-06-30T05:21:11.172Z,99556.09
2023-06-30T05:23:39.607Z,99552.56
2023-06-30T05:26:08.751Z,99556.22
2023-06-30T05:28:37.511Z,99563.50
2023-06-30T05:31:06.347Z,99560.31
2023-06-30T05:33:34.748Z,99567.81
2023-06-30T05:36:02.463Z,99562.25
2023-06-30T05:38:31.330Z,99568.91
2023-06-30T05:41:00.529Z,99562.19
2023-06-30T05:43:28.821Z,99567.31
2023-06-30T05:45:56.520Z,99567.78
2023-06-30T05:48:24.950Z,99561.69
2023-06-30T05:50:53.168Z,99568.81
2023-06-30T05:53:21.491Z,99559.13
2023-06-30T05:55:49.535Z,99552.44
2023-06-30T05:58:17.783Z,99549.19
2023-06-30T06:00:46.591Z,99547.41
2023-06-30T06:03:18.604Z,99544.09
2023-06-30T06:05:48.157Z,99548.22
2023-06-30T06:08:16.837Z,99541.16
2023-06-30T06:10:48.133Z,99535.03
2023-06-30T06:13:35.317Z,99523.72
2023-06-30T06:16:04.516Z,99528.94
2023-06-30T06:18:33.566Z,99531.31
2023-06-30T06:21:04.539Z,99524.78
2023-06-30T06:23:33.791Z,99523.97
2023-06-30T06:26:03.632Z,99535.41
2023-06-30T06:28:32.272Z,99542.09
2023-06-30T06:31:00.530Z,99536.22
2023-06-30T06:33:32.296Z,99538.16
2023-06-30T06:36:00.498Z,99527.63
2023-06-30T06:38:29.255Z,99535.50
2023-06-30T06:40:57.225Z,99524.72
2023-06-30T06:43:27.809Z,99530.72
2023-06-30T06:45:56.060Z,99524.59
2023-06-30T06:48:26.901Z,99532.38
2023-06-30T06:51:03.605Z,99525.63
2023-06-30T06:53:36.508Z,99539.66
2023-06-30T06:56:16.957Z,99532.78
2023-06-30T06:58:46.511Z,99538.38
2023-06-30T07:01:14.849Z,99531.13
2023-06-30T07:03:43.874Z,99540.03
2023-06-30T07:06:12.297Z,99533.31
2023-06-30T07:08:41.792Z,99543.69
2023-06-30T07:11:12.507Z,99532.47
2023-06-30T07:13:40.780Z,99530.84
2023-06-30T07:16:09.857Z,99527.69
2023-06-30T07:18:38.495Z,99535.53
2023-06-30T07:21:07.482Z,99528.44
2023-06-30T07:23:36.722Z,99525.66
2023-06-30T07:26:04.856Z,99525.81
2023-06-30T07:28:34.359Z,99525.44
2023-06-30T07:31:02.528Z,99534.00
2023-06-30T07:33:30.584Z,99532.63
2023-06-30T07:35:58.746Z,99526.50
2023-06-30T07:38:27.231Z,99524.28
2023-06-30T07:40:57.128Z,99531.97
2023-06-30T07:43:26.625Z,99528.97
2023-06-30T07:45:56.923Z,99525.25
2023-06-30T07:48:28.294Z,99528.34
2023-06-30T07:51:08.418Z,99533.75
2023-06-30T07:53:40.506Z,99528.47
2023-06-30T07:56:08.918Z,99515.34
2023-06-30T07:58:37.145Z,99518.06
2023-06-30T08:01:05.408Z,99525.91
2023-06-30T08:03:35.709Z,99514.28
2023-06-30T08:06:04.418Z,99517.59
2023-06-30T08:08:33.542Z,99522.63
2023-06-30T08:11:01.822Z,99513.72
2023-06-30T08:13:31.184Z,99517.44
2023-06-30T08:15:59.416Z,99513.38
2023-06-30T08:18:34.123Z,99501.19
2023-06-30T08:21:04.184Z,99503.56
2023-06-30T08:23:42.154Z,99513.34
2023-06-30T08:26:10.471Z,99512.91
2023-06-30T08:28:39.104Z,99510.44
2023-06-30T08:31:07.067Z,99513.41
2023-06-30T08:33:40.404Z,99514.59
2023-06-30T08:36:11.144Z,99522.78
2023-06-30T08:38:39.421Z,99520.06
2023-06-30T08:41:08.205Z,99518.44
2023-06-30T08:43:37.446Z,99515.44
2023-06-30T08:46:05.708Z,99515.38
2023-06-30T08:48:34.767Z,99520.66
2023-06-30T08:51:05.067Z,99508.75
2023-06-30T08:53:33.264Z,99507.34
2023-06-30T08:56:02.000Z,99496.84
2023-06-30T08:58:30.896Z,99510.16
2023-06-30T09:00:59.690Z,99509.28
2023-06-30T09:03:28.712Z,99506.84
2023-06-30T09:05:59.203Z,99500.00
2023-06-30T09:08:39.321Z,99513.81
2023-06-30T09:11:09.725Z,99514.03
2023-06-30T09:13:39.556Z,99504.75
2023-06-30T09:16:11.986Z,99509.53
2023-06-30T09:18:40.405Z,99509.13
2023-06-30T09:21:08.784Z,99505.53
2023-06-30T09:23:37.186Z,99505.94
2023-06-30T09:26:14.371Z,99502.41
2023-06-30T09:28:44.835Z,99500.22
2023-06-30T09:31:16.449Z,99503.09
2023-06-30T09:33:49.246Z,99508.34
2023-06-30T09:36:19.311Z,99489.81
2023-06-30T09:38:47.836Z,99491.47
2023-06-30T09:41:24.424Z,99499.53
2023-06-30T09:43:58.853Z,99499.50
2023-06-30T09:46:29.622Z,99500.75
2023-06-30T09:48:57.772Z,99504.88
2023-06-30T09:51:26.629Z,99501.44
2023-06-30T09:53:54.916Z,99489.59
2023-06-30T09:56:23.706Z,99501.22
2023-06-30T09:59:00.376Z,99501.00
2023-06-30T10:01:28.578Z,99492.38
2023-06-30T10:03:57.606Z,99497.25
2023-06-30T10:06:26.554Z,99490.16
2023-06-30T10:08:58.351Z,99490.75
2023-06-30T10:11:27.735Z,99487.03
2023-06-30T10:13:59.622Z,99493.34
2023-06-30T10:16:27.874Z,99499.75
2023-06-30T10:18:56.982Z,99493.75
2023-06-30T10:21:25.254Z,99484.00
2023-06-30T10:23:53.983Z,99484.78
2023-06-30T10:26:24.741Z,99484.84
2023-06-30T10:28:53.602Z,99493.00
2023-06-30T10:31:22.341Z,99478.34
2023-06-30T10:33:54.710Z,99478.69
2023-06-30T10:36:25.024Z,99494.41
2023-06-30T10:38:52.997Z,99488.25
2023-06-30T10:41:23.806Z,99482.81
2023-06-30T10:44:08.990Z,99481.47
2023-06-30T10:46:47.735Z,99476.56
2023-06-30T10:49:19.915Z,99477.88
2023-06-30T10:51:52.739Z,99478.59
2023-06-30T10:54:23.509Z,99472.47
2023-06-30T10:56:52.377Z,99483.66
2023-06-30T10:59:27.268Z,99474.72
2023-06-30T11:02:20.093Z,99468.78
2023-06-30T11:04:48.878Z,99470.03
2023-06-30T11:07:29.230Z,99456.19
2023-06-30T11:10:02.013Z,99467.56
2023-06-30T11:12:55.082Z,99472.22
2023-06-30T11:15:27.743Z,99467.81
2023-06-30T11:17:57.471Z,99464.25
2023-06-30T11:20:29.015Z,99473.56
2023-06-30T11:23:05.789Z,99483.38
2023-06-30T11:25:36.904Z,99473.31
2023-06-30T11:28:06.233Z,99481.66
2023-06-30T11:30:40.257Z,99472.81
2023-06-30T11:33:09.439Z,99463.97
2023-06-30T11:35:38.493Z,99470.56
2023-06-30T11:38:09.595Z,99470.38
2023-06-30T11:40:46.727Z,99464.78
2023-06-30T11:43:15.699Z,99471.28
2023-06-30T11:45:45.704Z,99471.84
2023-06-30T11:48:14.296Z,99468.91
2023-06-30T11:50:43.397Z,99473.59
2023-06-30T11:53:11.793Z,99471.81
2023-06-30T11:55:44.978Z,99485.56
2023-06-30T11:58:13.315Z,99472.19
2023-06-30T12:00:45.113Z,99484.09
2023-06-30T12:03:17.360Z,99494.00
2023-06-30T12:05:56.558Z,99488.84
2023-06-30T12:08:27.872Z,99487.44
2023-06-30T12:10:56.657Z,99487.34
2023-06-30T12:13:30.882Z,99483.88
2023-06-30T12:15:59.635Z,99476.63
2023-06-30T12:18:55.031Z,99478.97
2023-06-30T12:21:23.761Z,99476.13
2023-06-30T12:23:52.397Z,99472.97
2023-06-30T12:26:27.727Z,99479.28
2023-06-30T12:29:04.328Z,99470.06
2023-06-30T12:31:33.316Z,99470.47
2023-06-30T12:34:01.770Z,99467.69
2023-06-30T12:36:30.974Z,99457.88
2023-06-30T12:39:01.597Z,99459.28
2023-06-30T12:41:30.522Z,99451.28
2023-06-30T12:44:02.799Z,99445.41
2023-06-30T12:46:33.688Z,99450.47
2023-06-30T12:49:01.534Z,99440.94
2023-06-30T12:51:29.545Z,99443.22
2023-06-30T12:53:57.969Z,99440.44
2023-06-30T12:56:30.443Z,99437.84
2023-06-30T12:58:58.929Z,99435.72
2023-06-30T13:01:27.118Z,99425.34
2023-06-30T13:03:55.101Z,99426.56
2023-06-30T13:06:23.430Z,99419.66
2023-06-30T13:08:52.107Z,99422.16
2023-06-30T13:11:20.366Z,99416.91
2023-06-30T13:13:48.799Z,99412.72
2023-06-30T13:16:16.940Z,99403.16
2023-06-30T13:18:44.949Z,99403.00
2023-06-30T13:21:15.802Z,99387.03
2023-06-30T13:23:44.519Z,99395.06
2023-06-30T13:26:13.882Z,99382.28
2023-06-30T13:28:42.252Z,99381.44
2023-06-30T13:31:10.926Z,99381.75
2023-06-30T13:33:39.454Z,99381.28
2023-06-30T13:36:09.949Z,99375.00
2023-06-30T13:38:38.710Z,99368.56
2023-06-30T13:41:06.832Z,99365.09
2023-06-30T13:43:35.413Z,99366.56
2023-06-30T13:46:10.088Z,99365.88
2023-06-30T13:48:39.857Z,99374.16
2023-06-30T13:51:08.445Z,99374.47
2023-06-30T13:53:40.386Z,99386.88
2023-06-30T13:56:08.657Z,99378.56
2023-06-30T13:58:36.636Z,99390.53
2023-06-30T14:01:04.921Z,99385.13
2023-06-30T14:03:33.601Z,99379.91
2023-06-30T14:06:02.287Z,99385.56
2023-06-30T14:08:31.075Z,99387.28
2023-06-30T14:11:00.118Z,99391.00
2023-06-30T14:13:29.236Z,99394.72
2023-06-30T14:16:00.127Z,99382.59
2023-06-30T14:21:12.111Z,99383.19
2023-06-30T14:23:40.484Z,99394.50
2023-06-30T14:26:09.047Z,99383.34
2023-06-30T14:28:37.623Z,99379.75
2023-06-30T14:31:06.621Z,99377.75
2023-06-30T14:33:36.630Z,99380.22
2023-06-30T14:36:05.062Z,99382.41
2023-06-30T14:38:33.213Z,99395.03
2023-06-30T14:41:01.424Z,99390.91
2023-06-30T14:43:29.841Z,99395.50
2023-06-30T14:45:58.050Z,99391.47
2023-06-30T14:48:26.639Z,99383.41
2023-06-30T14:50:55.114Z,99380.41
2023-06-30T14:53:23.498Z,99378.78
2023-06-30T14:55:51.713Z,99384.88
2023-06-30T14:58:20.023Z,99393.66
2023-06-30T15:00:48.557Z,99393.44
2023-06-30T15:03:18.115Z,99381.91
2023-06-30T15:05:46.818Z,99385.78
2023-06-30T15:08:15.429Z,99384.53
2023-06-30T15:10:46.205Z,99388.31
2023-06-30T15:13:17.131Z,99390.16
2023-06-30T15:15:46.709Z,99401.81
2023-06-30T15:18:15.344Z,99401.03
2023-06-30T15:20:43.750Z,99402.94
2023-06-30T15:23:18.185Z,99414.97
2023-06-30T15:25:45.993Z,99403.31
2023-06-30T15:28:14.497Z,99397.59
2023-06-30T15:30:44.238Z,99400.97
2023-06-30T15:33:12.484Z,99401.00
2023-06-30T15:35:41.331Z,99415.78
2023-06-30T15:38:10.079Z,99415.41
2023-06-30T15:40:38.355Z,99427.31
2023-06-30T15:43:06.482Z,99431.03
2023-06-30T15:45:35.076Z,99429.53
2023-06-30T15:48:03.716Z,99441.03
2023-06-30T15:50:33.160Z,99435.94
2023-06-30T15:53:01.548Z,99441.47
2023-06-30T15:55:29.996Z,99447.69
2023-06-30T15:58:00.207Z,99459.84
2023-06-30T16:00:28.807Z,99466.53
2023-06-30T16:02:57.037Z,99471.56
2023-06-30T16:05:25.756Z,99463.81
2023-06-30T16:07:58.027Z,99459.63
2023-06-30T16:10:26.518Z,99455.97
2023-06-30T16:13:19.564Z,99464.97
2023-06-30T16:15:48.179Z,99461.22
2023-06-30T16:18:18.839Z,99452.13
2023-06-30T16:20:47.442Z,99453.16
2023-06-30T16:23:15.605Z,99464.63
2023-06-30T16:25:45.620Z,99473.13
2023-06-30T16:28:14.863Z,99459.88
2023-06-30T16:30:44.170Z,99493.16
2023-06-30T16:33:12.532Z,99530.34
2023-06-30T16:35:41.182Z,99530.19
2023-06-30T16:38:09.824Z,99538.47
2023-06-30T16:40:38.380Z,99577.00
2023-06-30T16:43:07.718Z,99520.38
2023-06-30T16:45:36.734Z,99540.88
2023-06-30T16:48:05.739Z,99530.22
2023-06-30T16:50:34.492Z,99532.84
2023-06-30T16:53:02.979Z,99512.72
2023-06-30T16:55:30.961Z,99495.00
2023-06-30T16:58:02.686Z,99504.53
2023-06-30T17:00:30.495Z,99494.91
2023-06-30T17:02:58.745Z,99491.16
2023-06-30T17:05:27.006Z,99487.84
2023-06-30T17:07:55.705Z,99477.34
2023-06-30T17:10:23.825Z,99493.47
2023-06-30T17:12:52.003Z,99490.56
2023-06-30T17:15:20.454Z,99492.25
2023-06-30T17:17:49.058Z,99501.50
2023-06-30T17:20:17.452Z,99497.72
2023-06-30T17:22:45.850Z,99505.06
2023-06-30T17:25:14.107Z,99501.63
2023-06-30T17:27:42.516Z,99504.16
2023-06-30T17:30:11.804Z,99508.38
2023-06-30T17:32:41.335Z,99507.94
2023-06-30T17:35:09.959Z,99523.28
2023-06-30T17:37:38.032Z,99528.56
2023-06-30T17:40:06.984Z,99533.31
2023-06-30T17:42:35.113Z,99543.47
2023-06-30T17:45:05.034Z,99542.41
2023-06-30T17:47:33.450Z,99543.91
2023-06-30T17:50:02.697Z,99548.13
2023-06-30T17:52:31.538Z,99557.56
2023-06-30T17:54:59.844Z,99573.72
2023-06-30T17:57:27.709Z,99578.19
2023-06-30T17:59:55.459Z,99580.09
2023-06-30T18:02:23.772Z,99576.34
2023-06-30T18:04:51.983Z,99565.63
2023-06-30T18:07:20.086Z,99568.16
2023-06-30T18:09:49.793Z,99565.22
2023-06-30T18:12:18.147Z,99553.72
2023-06-30T18:14:47.182Z,99557.97
2023-06-30T18:17:16.714Z,99552.34
2023-06-30T18:19:44.959Z,99548.63
2023-06-30T18:22:14.761Z,99547.19
2023-06-30T18:24:43.118Z,99545.06
2023-06-30T18:27:11.581Z,99538.16
2023-06-30T18:29:40.823Z,99529.56
2023-06-30T18:32:08.797Z,99519.66
2023-06-30T18:34:37.231Z,99529.13
2023-06-30T18:37:08.969Z,99524.06
2023-06-30T18:39:37.154Z,99525.94
2023-06-30T18:42:05.686Z,99525.13
2023-06-30T18:44:36.386Z,99519.03
2023-06-30T18:47:06.860Z,99512.13
2023-06-30T18:49:35.081Z,99516.75
2023-06-30T18:52:03.524Z,99519.06
2023-06-30T18:54:32.328Z,99518.03
2023-06-30T18:57:00.360Z,99515.09
2023-06-30T18:59:28.717Z,99522.66
2023-06-30T19:01:56.723Z,99513.28
2023-06-30T19:04:25.266Z,99508.66
2023-06-30T19:06:53.980Z,99517.06
2023-06-30T19:09:22.256Z,99514.38
2023-06-30T19:11:50.607Z,99524.25
2023-06-30T19:14:23.050Z,99526.75
2023-06-30T19:16:51.002Z,99507.84
2023-06-30T19:19:19.416Z,99514.38
2023-06-30T19:21:47.572Z,99517.53
2023-06-30T19:24:16.522Z,99518.19
2023-06-30T19:26:45.824Z,99513.34
2023-06-30T19:29:14.063Z,99519.03
2023-06-30T19:31:44.228Z,99518.38
2023-06-30T19:34:12.604Z,99523.00
2023-06-30T19:36:40.428Z,99518.78
2023-06-30T19:39:09.397Z,99521.94
2023-06-30T19:41:37.649Z,99517.94
2023-06-30T19:44:05.966Z,99518.78
2023-06-30T19:46:35.671Z,99530.31
2023-06-30T19:49:03.666Z,99532.00
2023-06-30T19:51:31.800Z,99536.38
2023-06-30T19:54:00.085Z,99539.56
2023-06-30T19:56:27.907Z,99530.94
2023-06-30T19:58:56.561Z,99540.34
2023-06-30T20:01:27.960Z,99540.59
2023-06-30T20:03:56.109Z,99538.91
2023-06-30T20:06:24.373Z,99545.22
2023-06-30T20:08:53.134Z,99544.59
2023-06-30T20:11:21.434Z,99543.13
2023-06-30T20:13:49.871Z,99548.59
2023-06-30T20:16:17.926Z,99546.03
2023-06-30T20:19:04.636Z,99541.19
2023-06-30T20:21:36.070Z,99553.41
2023-06-30T20:24:05.257Z,99542.69
2023-06-30T20:26:36.660Z,99547.94
2023-06-30T20:29:05.185Z,99547.50
2023-06-30T20:31:33.424Z,99545.75
2023-06-30T20:34:02.029Z,99549.25
2023-06-30T20:36:30.959Z,99548.84
2023-06-30T20:39:01.335Z,99550.97
2023-06-30T20:41:29.729Z,99557.44
2023-06-30T20:43:58.148Z,99552.34
2023-06-30T20:46:26.257Z,99555.53
2023-06-30T20:48:54.137Z,99558.25
2023-06-30T20:51:22.154Z,99560.75
2023-06-30T20:53:49.944Z,99552.13
2023-06-30T20:56:17.914Z,99560.47
2023-06-30T20:58:46.373Z,99566.53
2023-06-30T21:01:14.469Z,99561.28
2023-06-30T21:03:43.672Z,99554.53
2023-06-30T21:06:11.808Z,99561.22
2023-06-30T21:08:42.841Z,99565.16
2023-06-30T21:11:11.212Z,99572.94
2023-06-30T21:13:39.878Z,99567.91
2023-06-30T21:16:09.420Z,99569.84
2023-06-30T21:18:38.225Z,99566.66
2023-06-30T21:21:06.423Z,99566.66
2023-06-30T21:23:34.680Z,99567.72
2023-06-30T21:26:02.853Z,99566.00
2023-06-30T21:28:31.561Z,99563.28
2023-06-30T21:31:00.016Z,99565.63
2023-06-30T21:33:28.650Z,99555.97
2023-06-30T21:35:56.889Z,99563.50
2023-06-30T21:38:25.731Z,99564.78
2023-06-30T21:40:53.642Z,99558.50
2023-06-30T21:43:22.007Z,99556.59
2023-06-30T21:45:50.237Z,99543.16
2023-06-30T21:48:18.514Z,99550.50
2023-06-30T21:50:46.766Z,99566.22
2023-06-30T21:53:15.019Z,99550.06
2023-06-30T21:55:43.115Z,99553.25
2023-06-30T21:58:18.934Z,99561.22
2023-06-30T22:00:55.886Z,99558.50
2023-06-30T22:03:24.528Z,99547.56
2023-06-30T22:05:53.495Z,99555.97
2023-06-30T22:08:22.185Z,99558.03
2023-06-30T22:10:50.791Z,99554.22
2023-06-30T22:13:19.642Z,99565.53
2023-06-30T22:15:47.820Z,99565.75
2023-06-30T22:18:16.334Z,99576.38
2023-06-30T22:20:44.654Z,99566.72
2023-06-30T22:23:13.107Z,99560.44
2023-06-30T22:25:41.336Z,99549.44
2023-06-30T22:28:09.373Z,99559.31
2023-06-30T22:30:37.088Z,99564.72
2023-06-30T22:33:05.521Z,99561.13
2023-06-30T22:35:44.663Z,99547.78
2023-06-30T22:38:12.871Z,99546.56
2023-06-30T22:40:40.637Z,99544.25
2023-06-30T22:43:08.958Z,99548.84
2023-06-30T22:45:37.347Z,99556.44
2023-06-30T22:48:05.439Z,99549.31
2023-06-30T22:50:39.420Z,99547.88
2023-06-30T22:53:07.593Z,99547.25
2023-06-30T22:55:35.999Z,99543.66
2023-06-30T22:58:07.592Z,99535.69
2023-06-30T23:00:37.153Z,99534.44
2023-06-30T23:03:05.823Z,99536.56
2023-06-30T23:05:34.024Z,99533.47
2023-06-30T23:08:02.202Z,99541.66
2023-06-30T23:10:30.510Z,99539.53
2023-06-30T23:12:58.720Z,99539.34
2023-06-30T23:15:26.487Z,99544.63
2023-06-30T23:17:55.684Z,99550.44
2023-06-30T23:20:25.914Z,99552.94
2023-06-30T23:22:54.727Z,99557.72
2023-06-30T23:25:24.457Z,99543.91
2023-06-30T23:27:55.878Z,99550.22
2023-06-30T23:30:27.287Z,99552.09
2023-06-30T23:32:58.748Z,99545.16
2023-06-30T23:35:27.519Z,99544.75
2023-06-30T23:37:56.103Z,99551.06
2023-06-30T23:40:24.549Z,99553.78
2023-06-30T23:42:52.430Z,99548.13
2023-06-30T23:45:22.509Z,99555.91
2023-06-30T23:47:50.786Z,99551.50
2023-06-30T23:50:19.031Z,99557.41
2023-06-30T23:52:47.428Z,99566.88
2023-06-30T23:55:15.605Z,99560.38
2023-06-30T23:57:45.119Z,99560.56
